Time;durP1;ratioP1;P1;durP2;ratioP2;P2;SDS_P1;SDS_P2;PMS_P1;PMS_P2;Temp;Humidity;BMP_temperature;BMP_pressure;BME280_temperature;BME280_humidity;BME280_pressure;Samples;Min_cycle;Max_cycle;Signal;HPM_P1;HPM_P2
2021/01/13 00:01:08;;;;;;;5.35;2.80;;;;;;;0.85;99.49;99521.28;5032112;28;20217;-71
2021/01/13 00:03:34;;;;;;;5.68;3.40;;;;;;;0.81;99.94;99524.00;5032164;28;20214;-70
2021/01/13 00:06:00;;;;;;;5.65;2.58;;;;;;;0.82;100.00;99532.81;5032808;28;20249;-69
2021/01/13 00:08:27;;;;;;;6.00;3.63;;;;;;;0.70;100.00;99530.38;5036199;28;20273;-70
2021/01/13 00:10:53;;;;;;;6.85;2.72;;;;;;;0.62;100.00;99536.72;5035956;28;20252;-70
2021/01/13 00:13:21;;;;;;;4.18;3.67;;;;;;;0.68;100.00;99530.44;5035689;28;20206;-69
2021/01/13 00:15:47;;;;;;;5.45;3.83;;;;;;;0.63;100.00;99529.63;5035887;28;20736;-69
2021/01/13 00:18:13;;;;;;;5.13;4.72;;;;;;;0.85;100.00;99529.22;5035844;28;20626;-71
2021/01/13 00:20:39;;;;;;;5.18;3.33;;;;;;;0.95;100.00;99530.78;5035553;28;20206;-69
2021/01/13 00:23:05;;;;;;;4.05;2.90;;;;;;;0.74;100.00;99530.28;5035439;28;20260;-70
2021/01/13 00:25:32;;;;;;;4.63;3.50;;;;;;;0.72;100.00;99528.56;5035493;28;20197;-69
2021/01/13 00:27:58;;;;;;;6.93;2.95;;;;;;;0.61;100.00;99537.63;5027221;28;20217;-70
2021/01/13 00:30:25;;;;;;;4.07;3.22;;;;;;;0.49;100.00;99535.19;5035815;28;20190;-70
2021/01/13 00:32:51;;;;;;;4.32;3.47;;;;;;;0.45;100.00;99538.78;5035205;28;20273;-69
2021/01/13 00:35:17;;;;;;;5.65;3.78;;;;;;;0.43;100.00;99537.97;5035514;28;20206;-69
2021/01/13 00:37:44;;;;;;;5.32;4.57;;;;;;;0.46;100.00;99537.03;5035633;28;20281;-69
2021/01/13 00:40:11;;;;;;;3.40;3.10;;;;;;;0.41;100.00;99532.69;5035496;28;20238;-70
2021/01/13 00:42:45;;;;;;;7.82;4.18;;;;;;;0.49;100.00;99529.00;5035339;28;20624;-70
2021/01/13 00:45:14;;;;;;;5.60;4.15;;;;;;;0.40;100.00;99532.69;5035433;28;20277;-70
2021/01/13 00:47:42;;;;;;;5.43;4.55;;;;;;;0.42;100.00;99533.56;5035053;28;20209;-70
2021/01/13 00:50:09;;;;;;;7.05;3.13;;;;;;;0.53;100.00;99538.66;5035020;28;20676;-70
2021/01/13 00:52:35;;;;;;;5.05;3.60;;;;;;;0.45;100.00;99543.22;5034764;28;20684;-70
2021/01/13 00:55:01;;;;;;;9.35;3.67;;;;;;;0.61;100.00;99537.63;5035136;28;20650;-70
2021/01/13 00:57:28;;;;;;;6.45;4.50;;;;;;;0.43;100.00;99535.31;5034674;28;20302;-69
2021/01/13 00:59:54;;;;;;;3.55;3.25;;;;;;;0.38;100.00;99542.44;5035050;28;20330;-70
2021/01/13 01:02:20;;;;;;;7.28;4.55;;;;;;;0.25;100.00;99540.91;5034526;28;20249;-69
2021/01/13 01:04:47;;;;;;;7.82;4.80;;;;;;;0.19;100.00;99542.75;5034572;28;20296;-70
2021/01/13 01:07:13;;;;;;;8.30;4.60;;;;;;;0.15;100.00;99540.19;5034630;28;20543;-70
2021/01/13 01:09:39;;;;;;;13.55;4.20;;;;;;;0.17;100.00;99551.66;5034404;28;20205;-70
2021/01/13 01:12:07;;;;;;;4.72;3.40;;;;;;;0.17;100.00;99543.69;5034336;28;20206;-71
2021/01/13 01:14:34;;;;;;;3.55;3.20;;;;;;;0.17;100.00;99538.41;5034142;28;20584;-70
2021/01/13 01:17:00;;;;;;;8.00;3.90;;;;;;;0.15;100.00;99542.84;5033695;28;20686;-70
2021/01/13 01:19:26;;;;;;;9.95;4.32;;;;;;;0.16;100.00;99542.81;5033646;28;20641;-69
2021/01/13 01:21:53;;;;;;;3.67;3.33;;;;;;;0.14;100.00;99547.28;5034161;28;20647;-69
2021/01/13 01:24:19;;;;;;;13.20;4.68;;;;;;;0.09;100.00;99554.44;5033941;28;20221;-69
2021/01/13 01:26:46;;;;;;;4.40;3.50;;;;;;;0.12;100.00;99548.19;5034194;28;20611;-70
2021/01/13 01:29:12;;;;;;;4.28;3.88;;;;;;;0.18;100.00;99548.06;5033945;28;20293;-70
2021/01/13 01:31:38;;;;;;;10.27;4.90;;;;;;;0.15;100.00;99564.03;5033764;28;20190;-70
2021/01/13 01:34:05;;;;;;;4.65;3.55;;;;;;;0.10;100.00;99566.75;5033765;28;20285;-71
2021/01/13 01:36:31;;;;;;;6.53;3.88;;;;;;;0.08;100.00;99576.50;5033620;28;20209;-69
2021/01/13 01:38:58;;;;;;;4.72;3.42;;;;;;;0.01;100.00;99585.44;5033842;28;20538;-69
2021/01/13 01:41:24;;;;;;;6.47;3.90;;;;;;;0.01;100.00;99589.84;5033762;28;20186;-69
2021/01/13 01:43:51;;;;;;;5.28;3.78;;;;;;;0.02;100.00;99589.81;5033505;28;20717;-70
2021/01/13 01:46:18;;;;;;;5.38;3.28;;;;;;;-0.09;100.00;99586.44;5033348;28;20277;-69
2021/01/13 01:48:54;;;;;;;8.00;4.25;;;;;;;-0.12;100.00;99587.38;5033476;28;20190;-69
2021/01/13 01:51:27;;;;;;;8.30;4.32;;;;;;;-0.01;100.00;99595.16;5033251;28;20674;-69
2021/01/13 01:54:03;;;;;;;4.85;3.63;;;;;;;-0.07;100.00;99592.59;5033319;28;20277;-69
2021/01/13 01:56:36;;;;;;;7.25;4.05;;;;;;;-0.09;100.00;99589.09;5033068;28;20356;-69
2021/01/13 01:59:04;;;;;;;4.03;3.35;;;;;;;-0.15;100.00;99589.22;5033391;28;20190;-70
2021/01/13 02:01:33;;;;;;;4.07;2.88;;;;;;;-0.17;100.00;99597.16;5033216;28;20279;-71
2021/01/13 02:04:13;;;;;;;5.65;3.10;;;;;;;-0.17;100.00;99591.00;5032920;28;20206;-70
2021/01/13 02:07:25;;;;;;;6.38;3.45;;;;;;;-0.11;100.00;99590.94;5033041;28;20205;-70
2021/01/13 02:09:53;;;;;;;4.53;4.10;;;;;;;-0.10;100.00;99597.97;5033162;28;20641;-69
2021/01/13 02:12:26;;;;;;;3.25;2.42;;;;;;;-0.01;100.00;99595.16;5033216;28;20213;-71
2021/01/13 02:14:53;;;;;;;9.95;3.97;;;;;;;-0.16;100.00;99595.38;5032933;28;20194;-70
2021/01/13 02:17:28;;;;;;;10.48;3.72;;;;;;;-0.16;100.00;99595.38;5032981;28;20210;-69
2021/01/13 02:20:07;;;;;;;6.65;3.80;;;;;;;-0.25;100.00;99593.75;5033392;28;20240;-69
2021/01/13 02:22:41;;;;;;;9.10;5.07;;;;;;;-0.27;100.00;99590.25;5032889;28;20277;-70
2021/01/13 02:25:44;;;;;;;7.50;3.78;;;;;;;-0.31;100.00;99607.09;5032797;28;20218;-69
2021/01/13 02:28:15;;;;;;;6.65;4.07;;;;;;;-0.39;100.00;99615.09;5032796;28;20263;-69
2021/01/13 02:30:53;;;;;;;7.43;3.70;;;;;;;-0.35;100.00;99614.19;5032732;28;20700;-70
2021/01/13 02:33:24;;;;;;;3.45;3.15;;;;;;;-0.36;100.00;99615.09;5032883;28;20634;-69
2021/01/13 02:36:10;;;;;;;4.03;2.60;;;;;;;-0.38;100.00;99600.13;5032920;28;20546;-70
2021/01/13 02:38:37;;;;;;;3.15;2.50;;;;;;;-0.32;100.00;99597.38;5032646;28;20206;-70
2021/01/13 02:41:12;;;;;;;5.68;3.63;;;;;;;-0.37;100.00;99610.69;5032606;28;20200;-70
2021/01/13 02:43:50;;;;;;;5.65;3.40;;;;;;;-0.30;100.00;99598.25;5032449;28;20228;-70
2021/01/13 02:46:25;;;;;;;15.13;3.70;;;;;;;-0.38;100.00;99606.28;5032613;28;20190;-71
2021/01/13 02:48:58;;;;;;;5.20;3.60;;;;;;;-0.36;100.00;99606.25;5032994;28;20741;-69
2021/01/13 02:51:31;;;;;;;5.00;3.10;;;;;;;-0.37;100.00;99612.44;5032590;28;20713;-70
2021/01/13 02:54:08;;;;;;;4.97;3.90;;;;;;;-0.38;100.00;99608.06;5024653;28;20295;-70
2021/01/13 02:56:42;;;;;;;4.57;3.90;;;;;;;-0.21;100.00;99617.50;5032346;28;20232;-69
2021/01/13 02:59:12;;;;;;;4.07;2.88;;;;;;;-0.10;100.00;99624.41;5032575;28;20250;-71
2021/01/13 03:01:43;;;;;;;7.47;3.38;;;;;;;-0.08;100.00;99619.97;5032815;28;20629;-70
2021/01/13 03:04:10;;;;;;;3.83;2.90;;;;;;;-0.10;100.00;99627.94;5032240;28;20289;-69
2021/01/13 03:06:40;;;;;;;4.75;3.28;;;;;;;-0.07;100.00;99627.91;5032618;28;20220;-71
2021/01/13 03:09:08;;;;;;;5.78;3.35;;;;;;;-0.12;100.00;99626.22;5032520;28;20232;-70
2021/01/13 03:11:36;;;;;;;3.80;3.40;;;;;;;0.01;100.00;99629.56;5032564;28;20263;-69
2021/01/13 03:14:11;;;;;;;3.47;3.05;;;;;;;-0.14;100.00;99628.00;5032285;28;20197;-69
2021/01/13 03:16:40;;;;;;;7.10;3.40;;;;;;;-0.10;100.00;99629.72;5032273;28;20221;-71
2021/01/13 03:19:16;;;;;;;6.53;4.45;;;;;;;-0.13;100.00;99632.41;5032604;28;20198;-70
2021/01/13 03:21:51;;;;;;;7.60;3.20;;;;;;;-0.26;100.00;99643.16;5032544;28;20198;-71
2021/01/13 03:24:28;;;;;;;4.18;2.95;;;;;;;-0.27;100.00;99627.28;5032101;28;20304;-69
2021/01/13 03:26:56;;;;;;;3.90;3.35;;;;;;;-0.24;100.00;99638.72;5032490;28;20737;-70
2021/01/13 03:29:24;;;;;;;3.95;3.53;;;;;;;-0.22;100.00;99644.00;5032532;28;20295;-69
2021/01/13 03:32:06;;;;;;;6.30;3.72;;;;;;;-0.18;100.00;99642.16;5032250;28;20210;-69
2021/01/13 03:34:39;;;;;;;6.65;3.90;;;;;;;-0.23;100.00;99637.84;5032422;28;20206;-70
2021/01/13 03:37:17;;;;;;;6.72;5.10;;;;;;;0.16;100.00;99643.47;5031948;28;20221;-70
2021/01/13 03:39:43;;;;;;;6.90;3.88;;;;;;;-0.04;99.62;99642.88;5032452;28;20269;-69
2021/01/13 03:42:12;;;;;;;7.60;3.67;;;;;;;-0.08;99.35;99641.16;5035031;28;20541;-69
2021/01/13 03:44:43;;;;;;;6.60;3.45;;;;;;;-0.27;98.94;99643.16;5036006;28;20587;-71
2021/01/13 03:48:00;;;;;;;5.30;3.53;;;;;;;-0.35;99.40;99647.69;5035725;28;20281;-70
2021/01/13 03:50:35;;;;;;;3.20;2.90;;;;;;;-0.37;100.00;99642.41;5036080;28;20194;-69
2021/01/13 03:53:04;;;;;;;6.25;3.80;;;;;;;-0.37;100.00;99647.72;5035556;28;20265;-69
2021/01/13 03:55:32;;;;;;;6.05;3.53;;;;;;;-0.36;100.00;99654.78;5035846;28;20619;-70
2021/01/13 03:58:36;;;;;;;4.78;2.80;;;;;;;-0.38;100.00;99655.69;5027591;28;20247;-69
2021/01/13 04:01:19;;;;;;;5.38;3.58;;;;;;;-0.43;100.00;99650.44;5028578;28;20640;-69
2021/01/13 04:03:55;;;;;;;4.68;3.13;;;;;;;-0.35;100.00;99656.50;5035330;28;20206;-69
2021/01/13 04:06:22;;;;;;;9.02;4.13;;;;;;;-0.24;100.00;99665.19;5035699;28;20664;-69
2021/01/13 04:08:49;;;;;;;5.38;3.50;;;;;;;0.12;100.00;99659.41;5035440;28;20238;-69
2021/01/13 04:11:17;;;;;;;5.40;4.25;;;;;;;-0.13;99.06;99658.88;5035549;28;20213;-70
2021/01/13 04:13:46;;;;;;;6.43;4.00;;;;;;;-0.24;98.87;99662.53;5035355;28;20626;-69
2021/01/13 04:16:15;;;;;;;3.30;3.00;;;;;;;-0.18;99.53;99661.59;5035714;28;20206;-70
2021/01/13 04:18:44;;;;;;;7.45;4.40;;;;;;;0.11;99.41;99663.81;5035605;28;20248;-70
2021/01/13 04:21:13;;;;;;;7.07;2.92;;;;;;;-0.09;98.45;99657.91;5035018;28;20226;-70
2021/01/13 04:23:40;;;;;;;4.70;3.25;;;;;;;-0.13;98.31;99659.75;5035543;28;20236;-70
2021/01/13 04:26:07;;;;;;;5.00;3.40;;;;;;;0.07;98.58;99661.22;5035333;28;20607;-69
2021/01/13 04:28:33;;;;;;;9.13;4.50;;;;;;;0.02;98.04;99658.66;5035258;28;20209;-70
2021/01/13 04:31:00;;;;;;;9.27;4.03;;;;;;;-0.02;97.89;99672.84;5035277;28;20752;-70
2021/01/13 04:33:28;;;;;;;6.22;3.53;;;;;;;-0.04;97.35;99669.34;5035245;28;20285;-71
2021/01/13 04:35:55;;;;;;;11.82;4.00;;;;;;;-0.08;98.19;99663.22;5035298;28;20210;-69
2021/01/13 04:38:23;;;;;;;6.15;4.00;;;;;;;-0.07;98.42;99670.28;5034838;28;20218;-69
2021/01/13 04:41:04;;;;;;;4.88;3.97;;;;;;;-0.26;98.01;99666.97;5035140;28;20205;-70
2021/01/13 04:43:49;;;;;;;4.82;3.45;;;;;;;-0.39;98.55;99678.59;5035010;28;20244;-70
2021/01/13 04:46:27;;;;;;;6.60;3.75;;;;;;;-0.44;99.49;99662.78;5034740;28;20216;-69
2021/01/13 04:49:06;;;;;;;11.57;4.30;;;;;;;-0.34;100.00;99660.94;5034610;28;20216;-70
2021/01/13 04:51:34;;;;;;;6.38;4.40;;;;;;;-0.22;100.00;99650.16;5034716;28;20754;-69
2021/01/13 04:54:08;;;;;;;7.93;4.63;;;;;;;-0.10;100.00;99645.59;5034570;28;20532;-69
2021/01/13 04:56:47;;;;;;;10.23;4.85;;;;;;;-0.08;100.00;99657.03;5034572;28;20244;-69
2021/01/13 04:59:48;;;;;;;6.72;5.10;;;;;;;0.05;100.00;99652.47;5034848;28;20243;-69
2021/01/13 05:02:18;;;;;;;18.42;5.28;;;;;;;-0.15;99.97;99650.97;5034611;28;20579;-69
2021/01/13 05:05:03;;;;;;;7.25;3.60;;;;;;;-0.18;99.56;99658.94;5034329;28;20672;-70
2021/01/13 05:07:37;;;;;;;15.85;4.90;;;;;;;-0.24;99.51;99665.19;5034655;28;20186;-69
2021/01/13 05:10:08;;;;;;;5.75;4.28;;;;;;;-0.21;99.77;99665.13;5026944;28;20292;-70
2021/01/13 05:12:52;;;;;;;8.10;6.05;;;;;;;-0.17;99.95;99673.06;5034520;28;20190;-69
2021/01/13 05:15:25;;;;;;;6.88;3.72;;;;;;;-0.14;99.56;99673.00;5034489;28;20520;-69
2021/01/13 05:18:03;;;;;;;5.40;4.38;;;;;;;-0.17;98.96;99673.06;5034259;28;20240;-69
2021/01/13 05:20:32;;;;;;;8.73;5.70;;;;;;;-0.18;99.11;99679.22;5034408;28;20228;-69
2021/01/13 05:22:59;;;;;;;13.68;5.93;;;;;;;-0.15;99.03;99681.84;5034409;28;20187;-70
2021/01/13 05:25:50;;;;;;;5.03;3.67;;;;;;;-0.10;98.68;99675.59;5034360;28;20260;-70
2021/01/13 05:28:43;;;;;;;6.60;4.75;;;;;;;-0.06;98.78;99676.44;5028280;28;20240;-70
2021/01/13 05:31:51;;;;;;;6.85;4.68;;;;;;;0.06;98.44;99678.88;5027985;28;20225;-69
2021/01/13 06:14:35;;;;;;;7.93;4.40;;;;;;;0.37;96.18;99670.50;4876928;29;20346;-70
2021/01/13 06:17:32;;;;;;;5.50;4.78;;;;;;;0.58;96.00;99658.69;4941772;29;20208;-71
2021/01/13 06:24:27;;;;;;;4.13;2.97;;;;;;;0.81;94.67;99664.47;4910185;29;20289;-70
2021/01/13 06:31:27;;;;;;;;;;;;;;;;;;;;;
2021/01/13 06:49:38;;;;;;;11.13;4.72;;;;;;;0.91;93.26;99670.50;4921636;29;20201;-69
2021/01/13 07:42:25;;;;;;;7.45;4.60;;;;;;;1.01;93.13;99689.75;4833181;29;20321;-69
2021/01/13 09:23:17;;;;;;;10.65;5.43;;;;;;;3.20;84.51;99741.69;4876844;29;20200;-71
2021/01/13 09:45:05;;;;;;;5.10;3.95;;;;;;;3.45;83.06;99739.25;4846085;29;20236;-70
2021/01/13 09:51:14;;;;;;;4.20;2.40;;;;;;;3.32;82.80;99734.25;4842673;29;20578;-69
2021/01/13 10:04:45;;;;;;;2.25;2.05;;;;;;;3.41;83.62;99733.13;4935753;29;20287;-69
2021/01/13 10:18:49;;;;;;;2.97;1.98;;;;;;;3.63;82.08;99736.06;4912793;28;20550;-71
2021/01/13 10:21:47;;;;;;;3.10;2.83;;;;;;;3.12;85.16;99731.22;4971251;28;20649;-70
2021/01/13 11:00:09;;;;;;;5.15;3.22;;;;;;;4.04;80.84;99679.88;4913033;29;20559;-72
2021/01/13 11:20:25;;;;;;;3.58;2.20;;;;;;;4.30;78.63;99663.09;4834331;29;20246;-71
2021/01/13 13:29:23;;;;;;;2.05;1.85;;;;;;;5.89;69.72;99476.75;4785902;29;20210;-71
2021/01/13 13:38:54;;;;;;;;;;;;;;;;;;;;;
2021/01/13 16:28:23;;;;;;;9.27;4.50;;;;;;;4.55;92.81;99288.06;4901583;28;20757;-71
2021/01/13 16:30:50;;;;;;;5.55;3.05;;;;;;;4.59;92.86;99275.50;5034402;28;20208;-72
2021/01/13 16:33:20;;;;;;;8.00;5.63;;;;;;;4.47;92.96;99291.94;5034274;28;20695;-71
2021/01/13 16:35:47;;;;;;;6.75;4.50;;;;;;;4.67;93.08;99292.03;5034092;28;20200;-71
2021/01/13 16:38:14;;;;;;;8.88;4.95;;;;;;;4.54;94.12;99277.44;5034094;28;20266;-70
2021/01/13 16:40:43;;;;;;;11.55;5.05;;;;;;;4.42;95.68;99280.59;5034041;28;20629;-71
2021/01/13 16:43:19;;;;;;;9.05;4.45;;;;;;;4.36;96.91;99271.91;5034457;28;20601;-71
2021/01/13 16:45:49;;;;;;;11.27;5.65;;;;;;;4.53;97.43;99278.38;5033762;28;20229;-72
2021/01/13 16:48:16;;;;;;;7.85;5.20;;;;;;;4.43;97.60;99268.97;5033912;28;21047;-71
2021/01/13 16:50:42;;;;;;;14.63;7.00;;;;;;;4.67;97.52;99270.69;5034477;28;20347;-71
2021/01/13 16:53:10;;;;;;;12.23;7.45;;;;;;;4.57;96.63;99272.00;5033590;28;20218;-71
2021/01/13 16:55:36;;;;;;;9.55;5.55;;;;;;;4.60;96.19;99263.88;5034219;28;20298;-72
2021/01/13 16:58:05;;;;;;;8.20;5.10;;;;;;;4.49;96.25;99263.41;5033725;28;20217;-72
2021/01/13 17:00:34;;;;;;;11.73;6.22;;;;;;;4.44;96.86;99258.28;5033854;28;20294;-74
2021/01/13 17:03:03;;;;;;;10.07;5.65;;;;;;;4.51;98.42;99258.91;5033657;28;20200;-71
2021/01/13 17:05:30;;;;;;;12.60;6.00;;;;;;;4.42;97.66;99269.91;5033754;28;20226;-71
2021/01/13 17:07:58;;;;;;;9.50;5.88;;;;;;;4.39;97.82;99261.13;5033921;28;20636;-72
2021/01/13 17:10:25;;;;;;;11.68;5.38;;;;;;;4.29;97.43;99257.03;5033674;28;20253;-73
2021/01/13 17:12:54;;;;;;;12.52;7.03;;;;;;;4.27;98.48;99255.38;5033912;28;20248;-72
2021/01/13 17:15:21;;;;;;;12.68;5.60;;;;;;;4.31;98.35;99257.84;5033634;28;20207;-73
2021/01/13 17:17:48;;;;;;;13.68;6.72;;;;;;;4.20;97.12;99257.41;5034040;28;20341;-72
2021/01/13 17:20:18;;;;;;;10.55;7.72;;;;;;;4.19;98.01;99255.66;5034002;28;20282;-71
2021/01/13 17:22:46;;;;;;;12.98;6.13;;;;;;;4.25;98.57;99265.22;5033734;28;20294;-71
2021/01/13 17:25:16;;;;;;;11.57;7.05;;;;;;;4.18;98.44;99251.25;5033430;28;20317;-72
2021/01/13 17:27:44;;;;;;;12.95;7.07;;;;;;;4.24;98.67;99245.69;5033355;28;20287;-71
2021/01/13 17:30:12;;;;;;;7.43;6.30;;;;;;;4.36;97.80;99244.34;5033211;28;20298;-72
2021/01/13 17:32:39;;;;;;;13.60;7.78;;;;;;;4.33;97.93;99234.69;5033775;28;20674;-71
2021/01/13 17:35:08;;;;;;;10.18;6.60;;;;;;;4.24;98.26;99235.03;5033167;28;20272;-71
2021/01/13 17:37:37;;;;;;;10.45;7.15;;;;;;;4.27;98.04;99232.25;5033996;28;20205;-71
2021/01/13 17:40:05;;;;;;;10.82;6.80;;;;;;;4.26;97.96;99235.84;5033652;28;20690;-71
2021/01/13 17:42:32;;;;;;;11.27;6.60;;;;;;;4.21;98.17;99235.16;5033554;28;20313;-71
2021/01/13 17:44:59;;;;;;;11.07;5.60;;;;;;;4.24;98.70;99224.38;5032669;28;20238;-71
2021/01/13 17:47:27;;;;;;;11.95;7.15;;;;;;;4.31;99.11;99228.53;5032978;28;20716;-71
2021/01/13 17:49:54;;;;;;;16.23;6.75;;;;;;;4.32;99.10;99210.75;5033053;28;20646;-72
2021/01/13 17:52:21;;;;;;;16.30;6.75;;;;;;;4.31;98.61;99219.69;5033497;28;20216;-72
2021/01/13 17:54:52;;;;;;;10.30;6.03;;;;;;;4.29;98.72;99209.06;5032969;28;20227;-72
2021/01/13 17:57:21;;;;;;;13.30;7.93;;;;;;;4.30;99.23;99216.16;5033492;28;20204;-72
2021/01/13 17:59:48;;;;;;;9.70;6.38;;;;;;;4.29;99.49;99217.06;5032693;28;20318;-73
2021/01/13 18:02:21;;;;;;;10.55;5.43;;;;;;;4.33;99.20;99200.03;5033792;28;20215;-72
2021/01/13 18:04:54;;;;;;;8.95;4.90;;;;;;;4.43;98.69;99215.66;5033082;28;20218;-73
2021/01/13 18:07:22;;;;;;;9.75;6.40;;;;;;;4.38;98.73;99216.72;5033372;28;20208;-73
2021/01/13 18:09:50;;;;;;;9.80;4.70;;;;;;;4.39;98.51;99210.47;5032955;28;20270;-74
2021/01/13 18:12:16;;;;;;;11.43;6.32;;;;;;;4.50;98.46;99204.72;5033334;28;20243;-72
2021/01/13 18:14:43;;;;;;;14.73;5.40;;;;;;;4.52;98.58;99207.31;5032782;28;20196;-73
2021/01/13 18:17:16;;;;;;;14.85;7.85;;;;;;;4.60;98.62;99207.88;5032983;28;20247;-72
2021/01/13 18:19:42;;;;;;;9.27;6.20;;;;;;;4.51;98.38;99205.56;5032747;28;20717;-71
2021/01/13 18:22:09;;;;;;;9.55;6.03;;;;;;;4.47;98.70;99203.97;5032507;28;20247;-71
2021/01/13 18:24:36;;;;;;;14.35;8.63;;;;;;;4.53;99.07;99193.06;5032275;28;20228;-73
2021/01/13 18:27:03;;;;;;;9.50;5.93;;;;;;;4.50;99.12;99199.38;5032207;28;20211;-73
2021/01/13 18:29:30;;;;;;;6.38;5.10;;;;;;;4.81;97.04;99193.66;5032941;28;20231;-72
2021/01/13 18:31:57;;;;;;;11.10;5.75;;;;;;;4.72;96.17;99188.69;5032984;28;20249;-71
2021/01/13 18:34:23;;;;;;;7.43;4.82;;;;;;;4.70;97.47;99192.38;5032982;28;20308;-73
2021/01/13 18:36:50;;;;;;;7.93;5.25;;;;;;;4.72;97.71;99185.16;5032352;28;20216;-73
2021/01/13 18:39:17;;;;;;;9.90;5.78;;;;;;;5.01;95.08;99183.97;5031981;28;20210;-72
2021/01/13 18:41:45;;;;;;;9.63;4.47;;;;;;;5.16;94.13;99178.00;5032124;28;20253;-74
2021/01/13 18:44:13;;;;;;;9.88;5.20;;;;;;;4.90;95.39;99172.88;5031418;28;20266;-72
2021/01/13 18:46:41;;;;;;;7.13;5.00;;;;;;;4.77;96.87;99173.41;5032108;28;20208;-72
2021/01/13 18:49:08;;;;;;;10.02;5.95;;;;;;;4.64;98.15;99168.63;5031545;28;20227;-71
2021/01/13 18:51:36;;;;;;;11.65;6.38;;;;;;;4.65;99.25;99163.22;5031987;28;20224;-72
2021/01/13 18:54:03;;;;;;;6.75;5.55;;;;;;;4.64;99.25;99161.50;5032731;28;20232;-71
2021/01/13 18:56:29;;;;;;;11.32;5.60;;;;;;;4.64;99.69;99158.81;5032979;28;20215;-72
2021/01/13 18:58:56;;;;;;;11.60;6.32;;;;;;;4.60;100.00;99155.41;5033041;28;20303;-72
2021/01/13 19:01:24;;;;;;;7.75;5.25;;;;;;;4.84;99.01;99158.00;5033009;28;20210;-72
2021/01/13 19:03:50;;;;;;;9.90;5.60;;;;;;;4.90;99.25;99159.53;5032215;28;20844;-72
2021/01/13 19:06:23;;;;;;;11.98;6.50;;;;;;;4.75;99.15;99137.06;5031892;28;20212;-71
2021/01/13 19:08:49;;;;;;;9.10;5.25;;;;;;;4.78;99.86;99155.59;5031390;28;20325;-71
2021/01/13 19:11:16;;;;;;;12.43;6.15;;;;;;;4.80;100.00;99159.94;5036261;28;20223;-71
2021/01/13 19:13:42;;;;;;;11.10;5.65;;;;;;;4.86;100.00;99157.94;5036055;28;20567;-71
2021/01/13 19:16:13;;;;;;;5.30;3.97;;;;;;;5.00;100.00;99156.44;5036453;28;20203;-72
2021/01/13 19:18:42;;;;;;;9.10;5.32;;;;;;;5.27;97.34;99155.28;5035760;28;20187;-72
2021/01/13 19:21:09;;;;;;;10.90;6.13;;;;;;;5.22;97.01;99152.81;5036056;28;20661;-71
2021/01/13 19:23:35;;;;;;;9.60;5.80;;;;;;;5.37;96.44;99164.66;5035256;28;20218;-73
2021/01/13 19:26:02;;;;;;;8.02;5.00;;;;;;;5.23;96.67;99168.78;5035457;28;20737;-71
2021/01/13 19:28:28;;;;;;;9.45;5.20;;;;;;;5.39;96.62;99174.31;5035607;28;20606;-71
2021/01/13 19:30:55;;;;;;;8.65;5.55;;;;;;;5.22;97.44;99177.72;5035861;28;20205;-71
2021/01/13 19:33:22;;;;;;;10.02;5.65;;;;;;;4.99;98.37;99180.50;5035694;28;20278;-74
2021/01/13 19:35:50;;;;;;;14.35;5.60;;;;;;;4.80;99.55;99178.59;5035558;28;20283;-71
2021/01/13 19:38:17;;;;;;;8.85;6.50;;;;;;;4.87;100.00;99170.34;5035763;28;20202;-72
2021/01/13 19:40:43;;;;;;;10.30;5.65;;;;;;;4.68;100.00;99167.56;5035371;28;20214;-71
2021/01/13 19:43:10;;;;;;;8.20;5.93;;;;;;;4.66;100.00;99166.75;5035994;28;20197;-72
2021/01/13 19:45:37;;;;;;;10.43;6.78;;;;;;;4.64;100.00;99164.16;5035621;28;20217;-71
2021/01/13 19:48:06;;;;;;;9.45;5.28;;;;;;;4.52;100.00;99177.97;5035874;28;20211;-72
2021/01/13 19:50:33;;;;;;;10.98;5.72;;;;;;;4.60;100.00;99158.06;5035850;28;20297;-72
2021/01/13 19:53:05;;;;;;;12.10;6.78;;;;;;;4.71;100.00;99167.44;5035311;28;20225;-72
2021/01/13 19:55:32;;;;;;;11.68;6.47;;;;;;;4.77;100.00;99159.16;5035306;28;20207;-70
2021/01/13 19:58:01;;;;;;;10.50;6.20;;;;;;;4.84;100.00;99155.34;5035117;28;20216;-72
2021/01/13 20:00:28;;;;;;;12.52;6.20;;;;;;;4.89;100.00;99157.81;5035725;28;20222;-71
2021/01/13 20:02:55;;;;;;;15.77;6.90;;;;;;;4.94;100.00;99162.00;5035963;28;20610;-71
2021/01/13 20:05:23;;;;;;;12.25;6.50;;;;;;;4.98;100.00;99152.09;5034914;28;20239;-71
2021/01/13 20:07:51;;;;;;;11.35;5.97;;;;;;;4.99;100.00;99165.34;5034763;28;20268;-71
2021/01/13 20:10:21;;;;;;;13.43;6.60;;;;;;;5.03;100.00;99165.25;5034705;28;20208;-71
2021/01/13 20:12:49;;;;;;;11.55;7.55;;;;;;;5.25;100.00;99168.72;5035125;28;20649;-71
2021/01/13 20:15:19;;;;;;;7.60;5.70;;;;;;;5.71;100.00;99181.84;5035108;28;20375;-71
2021/01/13 20:17:46;;;;;;;10.32;6.68;;;;;;;5.42;99.80;99182.19;5034420;28;20305;-72
2021/01/13 20:20:13;;;;;;;12.45;6.20;;;;;;;5.42;100.00;99178.66;5034515;28;20565;-72
2021/01/13 20:22:43;;;;;;;10.90;5.72;;;;;;;5.52;100.00;99174.66;5033848;28;20206;-72
2021/01/13 20:25:12;;;;;;;9.73;5.15;;;;;;;5.64;100.00;99194.59;5034551;28;20234;-71
2021/01/13 20:27:41;;;;;;;13.25;7.00;;;;;;;5.41;99.78;99188.47;5034193;28;20233;-73
2021/01/13 20:30:10;;;;;;;10.52;6.10;;;;;;;5.28;99.76;99165.03;5034798;28;20311;-72
2021/01/13 20:32:44;;;;;;;9.60;6.43;;;;;;;5.34;100.00;99173.66;5034708;28;20312;-74
2021/01/13 20:35:12;;;;;;;14.57;6.35;;;;;;;5.53;100.00;99178.19;5034877;28;20197;-73
2021/01/13 20:37:38;;;;;;;8.85;5.18;;;;;;;5.58;100.00;99165.50;5034430;28;20200;-72
2021/01/13 20:40:07;;;;;;;9.85;5.90;;;;;;;5.67;100.00;99166.88;5034579;28;20222;-72
2021/01/13 20:42:34;;;;;;;9.90;6.25;;;;;;;5.74;100.00;99168.34;5034941;28;20190;-72
2021/01/13 20:45:02;;;;;;;9.32;5.50;;;;;;;5.83;100.00;99162.56;5035155;28;20236;-72
2021/01/13 20:47:29;;;;;;;10.93;6.15;;;;;;;5.99;99.07;99169.00;5034645;28;20209;-72
2021/01/13 20:49:55;;;;;;;5.38;4.45;;;;;;;5.89;99.74;99181.00;5034567;28;20202;-72
2021/01/13 20:52:22;;;;;;;7.55;4.45;;;;;;;5.72;100.00;99187.13;5034593;28;20244;-73
2021/01/13 20:54:48;;;;;;;7.82;3.90;;;;;;;5.80;100.00;99184.97;5034528;28;20213;-73
2021/01/13 20:57:18;;;;;;;6.47;5.63;;;;;;;5.83;100.00;99194.63;5034422;28;20282;-72
2021/01/13 20:59:45;;;;;;;9.32;5.57;;;;;;;5.85;100.00;99204.31;5034682;28;20228;-71
2021/01/13 21:02:12;;;;;;;5.78;4.18;;;;;;;5.85;100.00;99209.66;5034574;28;20207;-72
2021/01/13 21:04:39;;;;;;;7.30;3.83;;;;;;;5.92;100.00;99204.91;5034191;28;20216;-71
2021/01/13 21:07:09;;;;;;;8.30;3.80;;;;;;;5.87;100.00;99198.91;5033957;28;20217;-71
2021/01/13 21:09:36;;;;;;;4.47;2.88;;;;;;;5.82;100.00;99203.59;5034587;28;20208;-73
2021/01/13 21:12:04;;;;;;;3.95;3.10;;;;;;;5.84;100.00;99201.72;5034408;28;20583;-71
2021/01/13 21:14:31;;;;;;;5.32;3.58;;;;;;;5.93;100.00;99204.00;5034716;28;20257;-72
2021/01/13 21:16:58;;;;;;;6.65;4.05;;;;;;;5.98;100.00;99193.97;5035057;28;20222;-72
2021/01/13 21:19:25;;;;;;;5.40;4.00;;;;;;;6.00;100.00;99192.09;5034894;28;20714;-71
2021/01/13 21:21:52;;;;;;;6.43;3.90;;;;;;;5.97;100.00;99194.03;5034983;28;20193;-73
2021/01/13 21:24:19;;;;;;;5.65;3.95;;;;;;;5.89;100.00;99194.38;5034671;28;20210;-72
2021/01/13 21:26:45;;;;;;;8.20;4.13;;;;;;;5.87;100.00;99190.91;5033903;28;20319;-73
2021/01/13 21:29:12;;;;;;;3.65;2.95;;;;;;;5.81;100.00;99192.06;5033654;28;20231;-74
2021/01/13 21:31:41;;;;;;;4.05;2.90;;;;;;;5.76;100.00;99193.19;5033736;28;20533;-72
2021/01/13 21:34:07;;;;;;;9.25;5.40;;;;;;;5.79;100.00;99195.75;5032712;28;20304;-72
2021/01/13 21:36:36;;;;;;;4.93;2.97;;;;;;;5.77;100.00;99195.78;5032717;28;20186;-72
2021/01/13 21:39:03;;;;;;;6.97;3.60;;;;;;;5.85;100.00;99206.13;5033170;28;20259;-71
2021/01/13 21:41:30;;;;;;;7.13;3.67;;;;;;;5.92;100.00;99204.03;5033482;28;20262;-71
2021/01/13 21:43:56;;;;;;;4.30;3.17;;;;;;;5.98;100.00;99209.16;5033248;28;20208;-71
2021/01/13 21:46:23;;;;;;;4.55;3.00;;;;;;;5.97;100.00;99212.75;5033356;28;20237;-72
2021/01/13 21:48:51;;;;;;;5.03;3.33;;;;;;;6.08;100.00;99220.28;5033358;28;20620;-72
2021/01/13 21:51:19;;;;;;;5.57;4.55;;;;;;;5.96;100.00;99216.38;5033375;28;20211;-72
2021/01/13 21:53:48;;;;;;;7.45;4.30;;;;;;;5.95;100.00;99210.16;5033483;28;20203;-72
2021/01/13 21:56:19;;;;;;;8.27;4.78;;;;;;;6.04;100.00;99217.75;5033168;28;20210;-72
2021/01/13 21:58:46;;;;;;;4.75;2.80;;;;;;;5.96;100.00;99219.91;5032938;28;20192;-72
2021/01/13 22:01:13;;;;;;;6.43;3.08;;;;;;;5.97;100.00;99220.75;5032895;28;20241;-72